sensor_id;sensor_type;location;lat;lon;timestamp;temperature;humidity
41882;DHT22;27562;47.524;12.404;2023-02-27T00:00:13;-2.10;99.90
41882;DHT22;27562;47.524;12.404;2023-02-27T00:02:42;-2.10;99.90
41882;DHT22;27562;47.524;12.404;2023-02-27T00:05:08;-2.20;99.90
41882;DHT22;27562;47.524;12.404;2023-02-27T00:07:34;-2.10;99.90
41882;DHT22;27562;47.524;12.404;2023-02-27T00:10:00;-2.10;99.90
41882;DHT22;27562;47.524;12.404;2023-02-27T00:12:25;-2.10;99.90
41882;DHT22;27562;47.524;12.404;2023-02-27T00:14:51;-2.10;99.90
41882;DHT22;27562;47.524;12.404;2023-02-27T00:17:16;-2.20;99.90
41882;DHT22;27562;47.524;12.404;2023-02-27T00:19:42;-2.20;99.90
41882;DHT22;27562;47.524;12.404;2023-02-27T00:22:08;-2.10;99.90
41882;DHT22;27562;47.524;12.404;2023-02-27T00:24:33;-2.10;99.90
41882;DHT22;27562;47.524;12.404;2023-02-27T00:26:59;-2.20;99.90
41882;DHT22;27562;47.524;12.404;2023-02-27T00:29:24;-2.20;99.90
41882;DHT22;27562;47.524;12.404;2023-02-27T00:31:50;-2.20;99.90
41882;DHT22;27562;47.524;12.404;2023-02-27T00:34:16;-2.20;99.90
41882;DHT22;27562;47.524;12.404;2023-02-27T00:36:41;-2.20;99.90
41882;DHT22;27562;47.524;12.404;2023-02-27T00:39:07;-2.20;99.90
41882;DHT22;27562;47.524;12.404;2023-02-27T00:41:33;-2.10;99.90
41882;DHT22;27562;47.524;12.404;2023-02-27T00:43:58;-2.20;99.90
41882;DHT22;27562;47.524;12.404;2023-02-27T00:46:24;-2.10;99.90
41882;DHT22;27562;47.524;12.404;2023-02-27T00:48:49;-2.10;99.90
41882;DHT22;27562;47.524;12.404;2023-02-27T00:51:15;-2.10;99.90
41882;DHT22;27562;47.524;12.404;2023-02-27T00:53:41;-2.10;99.90
41882;DHT22;27562;47.524;12.404;2023-02-27T00:56:06;-2.00;99.90
41882;DHT22;27562;47.524;12.404;2023-02-27T00:58:32;-2.00;99.90
41882;DHT22;27562;47.524;12.404;2023-02-27T01:00:58;-2.00;99.90
41882;DHT22;27562;47.524;12.404;2023-02-27T01:03:24;-2.10;99.90
41882;DHT22;27562;47.524;12.404;2023-02-27T01:05:50;-2.00;99.90
41882;DHT22;27562;47.524;12.404;2023-02-27T01:08:16;-2.10;99.90
41882;DHT22;27562;47.524;12.404;2023-02-27T01:10:41;-2.10;99.90
41882;DHT22;27562;47.524;12.404;2023-02-27T01:13:07;-2.10;99.90
41882;DHT22;27562;47.524;12.404;2023-02-27T01:15:33;-2.00;99.90
41882;DHT22;27562;47.524;12.404;2023-02-27T01:17:59;-2.10;99.90
41882;DHT22;27562;47.524;12.404;2023-02-27T01:20:24;-2.10;99.90
41882;DHT22;27562;47.524;12.404;2023-02-27T01:22:50;-2.10;99.90
41882;DHT22;27562;47.524;12.404;2023-02-27T01:25:15;-2.10;99.90
41882;DHT22;27562;47.524;12.404;2023-02-27T01:27:41;-2.10;99.90
41882;DHT22;27562;47.524;12.404;2023-02-27T01:30:07;-2.10;99.90
41882;DHT22;27562;47.524;12.404;2023-02-27T01:32:34;-2.00;99.90
41882;DHT22;27562;47.524;12.404;2023-02-27T01:35:00;-2.00;99.90
41882;DHT22;27562;47.524;12.404;2023-02-27T01:37:26;-2.00;99.90
41882;DHT22;27562;47.524;12.404;2023-02-27T01:39:51;-2.00;99.90
41882;DHT22;27562;47.524;12.404;2023-02-27T01:42:21;-2.00;99.90
41882;DHT22;27562;47.524;12.404;2023-02-27T01:47:24;-2.10;99.90
41882;DHT22;27562;47.524;12.404;2023-02-27T01:49:50;-2.10;99.90
41882;DHT22;27562;47.524;12.404;2023-02-27T01:52:16;-2.10;99.90
41882;DHT22;27562;47.524;12.404;2023-02-27T01:54:41;-2.10;99.90
41882;DHT22;27562;47.524;12.404;2023-02-27T01:57:07;-2.10;99.90
41882;DHT22;27562;47.524;12.404;2023-02-27T01:59:34;-2.10;99.90
41882;DHT22;27562;47.524;12.404;2023-02-27T02:02:01;-2.10;99.90
41882;DHT22;27562;47.524;12.404;2023-02-27T02:04:28;-2.10;99.90
41882;DHT22;27562;47.524;12.404;2023-02-27T02:07:02;-2.10;99.90
41882;DHT22;27562;47.524;12.404;2023-02-27T02:09:28;-2.10;99.90
41882;DHT22;27562;47.524;12.404;2023-02-27T02:11:54;-2.00;99.90
41882;DHT22;27562;47.524;12.404;2023-02-27T02:14:21;-2.10;99.90
41882;DHT22;27562;47.524;12.404;2023-02-27T02:17:49;-2.10;99.90
41882;DHT22;27562;47.524;12.404;2023-02-27T02:27:53;-2.00;99.90
41882;DHT22;27562;47.524;12.404;2023-02-27T02:45:26;-2.00;99.90
41882;DHT22;27562;47.524;12.404;2023-02-27T02:47:56;-2.00;99.90
41882;DHT22;27562;47.524;12.404;2023-02-27T02:50:34;-2.00;99.90
41882;DHT22;27562;47.524;12.404;2023-02-27T02:53:05;-2.00;99.90
41882;DHT22;27562;47.524;12.404;2023-02-27T02:55:43;-2.00;99.90
41882;DHT22;27562;47.524;12.404;2023-02-27T03:00:47;-2.00;99.90
41882;DHT22;27562;47.524;12.404;2023-02-27T03:03:23;-2.00;99.90
41882;DHT22;27562;47.524;12.404;2023-02-27T03:05:51;-2.00;99.90
41882;DHT22;27562;47.524;12.404;2023-02-27T03:08:23;-2.00;99.90
41882;DHT22;27562;47.524;12.404;2023-02-27T03:10:50;-2.00;99.90
41882;DHT22;27562;47.524;12.404;2023-02-27T03:13:20;-2.00;99.90
41882;DHT22;27562;47.524;12.404;2023-02-27T03:15:47;-2.00;99.90
41882;DHT22;27562;47.524;12.404;2023-02-27T03:18:24;-2.10;99.90
41882;DHT22;27562;47.524;12.404;2023-02-27T03:20:55;-2.00;99.90
41882;DHT22;27562;47.524;12.404;2023-02-27T03:23:41;-2.00;99.90
41882;DHT22;27562;47.524;12.404;2023-02-27T03:26:07;-2.10;99.90
41882;DHT22;27562;47.524;12.404;2023-02-27T03:28:34;-2.10;99.90
41882;DHT22;27562;47.524;12.404;2023-02-27T03:31:10;-2.10;99.90
41882;DHT22;27562;47.524;12.404;2023-02-27T03:33:39;-2.10;99.90
41882;DHT22;27562;47.524;12.404;2023-02-27T03:36:14;-2.10;99.90
41882;DHT22;27562;47.524;12.404;2023-02-27T03:38:45;-2.10;99.90
41882;DHT22;27562;47.524;12.404;2023-02-27T03:46:06;-2.10;99.90
41882;DHT22;27562;47.524;12.404;2023-02-27T03:48:33;-2.10;99.90
41882;DHT22;27562;47.524;12.404;2023-02-27T03:50:59;-2.10;99.90
41882;DHT22;27562;47.524;12.404;2023-02-27T03:53:32;-2.10;99.90
41882;DHT22;27562;47.524;12.404;2023-02-27T03:55:59;-2.10;99.90
41882;DHT22;27562;47.524;12.404;2023-02-27T03:58:26;-2.10;99.90
41882;DHT22;27562;47.524;12.404;2023-02-27T04:00:52;-2.10;99.90
41882;DHT22;27562;47.524;12.404;2023-02-27T04:03:18;-2.10;99.90
41882;DHT22;27562;47.524;12.404;2023-02-27T04:05:43;-2.10;99.90
41882;DHT22;27562;47.524;12.404;2023-02-27T04:08:29;-2.10;99.90
41882;DHT22;27562;47.524;12.404;2023-02-27T04:13:32;-2.10;99.90
41882;DHT22;27562;47.524;12.404;2023-02-27T04:19:08;-2.10;99.90
41882;DHT22;27562;47.524;12.404;2023-02-27T04:21:37;-2.20;99.90
41882;DHT22;27562;47.524;12.404;2023-02-27T04:26:38;-2.20;99.90
41882;DHT22;27562;47.524;12.404;2023-02-27T04:31:38;-2.20;99.90
41882;DHT22;27562;47.524;12.404;2023-02-27T04:34:15;-2.20;99.90
41882;DHT22;27562;47.524;12.404;2023-02-27T04:36:45;-2.10;99.90
41882;DHT22;27562;47.524;12.404;2023-02-27T04:41:49;-2.10;99.90
41882;DHT22;27562;47.524;12.404;2023-02-27T04:44:17;-2.10;99.90
41882;DHT22;27562;47.524;12.404;2023-02-27T04:46:43;-2.10;99.90
41882;DHT22;27562;47.524;12.404;2023-02-27T04:49:30;-2.10;99.90
41882;DHT22;27562;47.524;12.404;2023-02-27T04:51:57;-2.10;99.90
41882;DHT22;27562;47.524;12.404;2023-02-27T04:54:33;-2.10;99.90
41882;DHT22;27562;47.524;12.404;2023-02-27T04:57:01;-2.10;99.90
41882;DHT22;27562;47.524;12.404;2023-02-27T04:59:32;-2.10;99.90
41882;DHT22;27562;47.524;12.404;2023-02-27T05:02:21;-2.10;99.90
41882;DHT22;27562;47.524;12.404;2023-02-27T05:04:49;-2.10;99.90
41882;DHT22;27562;47.524;12.404;2023-02-27T05:07:16;-2.10;99.90
41882;DHT22;27562;47.524;12.404;2023-02-27T05:09:45;-2.10;99.90
41882;DHT22;27562;47.524;12.404;2023-02-27T05:14:44;-2.10;99.90
41882;DHT22;27562;47.524;12.404;2023-02-27T05:17:13;-2.10;99.90
41882;DHT22;27562;47.524;12.404;2023-02-27T05:19:42;-2.10;99.90
41882;DHT22;27562;47.524;12.404;2023-02-27T05:24:44;-2.10;99.90
41882;DHT22;27562;47.524;12.404;2023-02-27T05:29:49;-2.10;99.90
41882;DHT22;27562;47.524;12.404;2023-02-27T05:34:46;-2.10;99.90
41882;DHT22;27562;47.524;12.404;2023-02-27T05:37:14;-2.10;99.90
41882;DHT22;27562;47.524;12.404;2023-02-27T05:39:40;-2.10;99.90
41882;DHT22;27562;47.524;12.404;2023-02-27T05:42:13;-2.10;99.90
41882;DHT22;27562;47.524;12.404;2023-02-27T05:44:41;-2.10;99.90
41882;DHT22;27562;47.524;12.404;2023-02-27T05:47:16;-2.10;99.90
41882;DHT22;27562;47.524;12.404;2023-02-27T05:49:44;-2.10;99.90
41882;DHT22;27562;47.524;12.404;2023-02-27T05:52:12;-2.10;99.90
41882;DHT22;27562;47.524;12.404;2023-02-27T05:54:50;-2.20;99.90
41882;DHT22;27562;47.524;12.404;2023-02-27T05:57:38;-2.20;99.90
41882;DHT22;27562;47.524;12.404;2023-02-27T06:00:20;-2.30;99.90
41882;DHT22;27562;47.524;12.404;2023-02-27T06:02:48;-2.30;99.90
41882;DHT22;27562;47.524;12.404;2023-02-27T06:05:14;-2.40;99.90
41882;DHT22;27562;47.524;12.404;2023-02-27T06:07:40;-2.40;99.90
41882;DHT22;27562;47.524;12.404;2023-02-27T06:10:06;-2.30;99.90
41882;DHT22;27562;47.524;12.404;2023-02-27T06:12:31;-2.30;99.90
41882;DHT22;27562;47.524;12.404;2023-02-27T06:14:57;-2.30;99.90
41882;DHT22;27562;47.524;12.404;2023-02-27T06:17:22;-2.30;99.90
41882;DHT22;27562;47.524;12.404;2023-02-27T06:19:48;-2.20;99.90
41882;DHT22;27562;47.524;12.404;2023-02-27T06:22:14;-2.20;99.90
41882;DHT22;27562;47.524;12.404;2023-02-27T06:24:39;-2.20;99.90
41882;DHT22;27562;47.524;12.404;2023-02-27T06:27:05;-2.20;99.90
41882;DHT22;27562;47.524;12.404;2023-02-27T06:29:30;-2.10;99.90
41882;DHT22;27562;47.524;12.404;2023-02-27T06:31:56;-2.10;99.90
41882;DHT22;27562;47.524;12.404;2023-02-27T06:34:21;-2.10;99.90
41882;DHT22;27562;47.524;12.404;2023-02-27T06:36:47;-2.10;99.90
41882;DHT22;27562;47.524;12.404;2023-02-27T06:39:13;-2.10;99.90
41882;DHT22;27562;47.524;12.404;2023-02-27T06:41:39;-2.00;99.90
41882;DHT22;27562;47.524;12.404;2023-02-27T06:44:04;-2.00;99.90
41882;DHT22;27562;47.524;12.404;2023-02-27T06:46:30;-2.00;99.90
41882;DHT22;27562;47.524;12.404;2023-02-27T06:48:55;-2.00;99.90
41882;DHT22;27562;47.524;12.404;2023-02-27T06:51:21;-1.90;99.90
41882;DHT22;27562;47.524;12.404;2023-02-27T06:53:46;-1.90;99.90
41882;DHT22;27562;47.524;12.404;2023-02-27T06:56:12;-1.90;99.90
41882;DHT22;27562;47.524;12.404;2023-02-27T06:58:38;-1.80;99.90
41882;DHT22;27562;47.524;12.404;2023-02-27T07:01:03;-1.80;99.90
41882;DHT22;27562;47.524;12.404;2023-02-27T07:03:29;-1.70;99.90
41882;DHT22;27562;47.524;12.404;2023-02-27T07:05:55;-1.70;99.90
41882;DHT22;27562;47.524;12.404;2023-02-27T07:08:21;-1.70;99.90
41882;DHT22;27562;47.524;12.404;2023-02-27T07:10:47;-1.60;99.90
41882;DHT22;27562;47.524;12.404;2023-02-27T07:13:13;-1.60;99.90
41882;DHT22;27562;47.524;12.404;2023-02-27T07:15:39;-1.60;99.90
41882;DHT22;27562;47.524;12.404;2023-02-27T07:18:04;-1.60;99.90
41882;DHT22;27562;47.524;12.404;2023-02-27T07:20:30;-1.60;99.90
41882;DHT22;27562;47.524;12.404;2023-02-27T07:22:55;-1.50;99.90
41882;DHT22;27562;47.524;12.404;2023-02-27T07:25:21;-1.50;99.90
41882;DHT22;27562;47.524;12.404;2023-02-27T07:27:47;-1.50;99.90
41882;DHT22;27562;47.524;12.404;2023-02-27T07:30:15;-1.50;99.90
41882;DHT22;27562;47.524;12.404;2023-02-27T07:32:41;-1.50;99.90
41882;DHT22;27562;47.524;12.404;2023-02-27T07:35:07;-1.50;99.90
41882;DHT22;27562;47.524;12.404;2023-02-27T07:37:32;-1.40;99.90
41882;DHT22;27562;47.524;12.404;2023-02-27T07:39:58;-1.40;99.90
41882;DHT22;27562;47.524;12.404;2023-02-27T07:42:24;-1.40;99.90
41882;DHT22;27562;47.524;12.404;2023-02-27T07:44:49;-1.40;99.90
41882;DHT22;27562;47.524;12.404;2023-02-27T07:47:15;-1.30;99.90
41882;DHT22;27562;47.524;12.404;2023-02-27T07:49:42;-1.20;99.90
41882;DHT22;27562;47.524;12.404;2023-02-27T07:52:07;-1.20;99.90
41882;DHT22;27562;47.524;12.404;2023-02-27T07:54:33;-1.20;99.90
41882;DHT22;27562;47.524;12.404;2023-02-27T07:56:59;-1.10;99.90
41882;DHT22;27562;47.524;12.404;2023-02-27T07:59:24;-1.10;99.90
41882;DHT22;27562;47.524;12.404;2023-02-27T08:01:50;-1.00;99.90
41882;DHT22;27562;47.524;12.404;2023-02-27T08:04:15;-1.00;99.90
41882;DHT22;27562;47.524;12.404;2023-02-27T08:06:41;-1.00;99.90
41882;DHT22;27562;47.524;12.404;2023-02-27T08:09:06;-0.90;99.90
41882;DHT22;27562;47.524;12.404;2023-02-27T08:11:32;-0.90;99.90
41882;DHT22;27562;47.524;12.404;2023-02-27T08:13:58;-0.80;99.90
41882;DHT22;27562;47.524;12.404;2023-02-27T08:16:23;-0.80;99.90
41882;DHT22;27562;47.524;12.404;2023-02-27T08:18:49;-0.70;99.90
41882;DHT22;27562;47.524;12.404;2023-02-27T08:21:14;-0.60;99.90
41882;DHT22;27562;47.524;12.404;2023-02-27T08:23:40;-0.50;99.90
41882;DHT22;27562;47.524;12.404;2023-02-27T08:26:06;-0.40;99.90
41882;DHT22;27562;47.524;12.404;2023-02-27T08:28:31;-0.40;99.90
41882;DHT22;27562;47.524;12.404;2023-02-27T08:30:57;-0.30;99.90
41882;DHT22;27562;47.524;12.404;2023-02-27T08:33:22;-0.30;99.90
41882;DHT22;27562;47.524;12.404;2023-02-27T08:35:48;-0.20;99.90
41882;DHT22;27562;47.524;12.404;2023-02-27T08:38:14;-0.10;99.90
41882;DHT22;27562;47.524;12.404;2023-02-27T08:40:39;-0.10;99.90
41882;DHT22;27562;47.524;12.404;2023-02-27T08:43:05;0.00;99.90
41882;DHT22;27562;47.524;12.404;2023-02-27T08:45:30;0.10;99.90
41882;DHT22;27562;47.524;12.404;2023-02-27T08:47:56;0.10;99.90
41882;DHT22;27562;47.524;12.404;2023-02-27T08:50:22;0.20;99.90
41882;DHT22;27562;47.524;12.404;2023-02-27T08:52:47;0.10;99.90
41882;DHT22;27562;47.524;12.404;2023-02-27T08:55:13;0.20;99.90
41882;DHT22;27562;47.524;12.404;2023-02-27T08:57:39;0.20;99.90
41882;DHT22;27562;47.524;12.404;2023-02-27T09:00:05;0.20;99.90
41882;DHT22;27562;47.524;12.404;2023-02-27T09:02:31;0.30;99.90
41882;DHT22;27562;47.524;12.404;2023-02-27T09:04:57;0.30;99.90
41882;DHT22;27562;47.524;12.404;2023-02-27T09:07:23;0.40;99.90
41882;DHT22;27562;47.524;12.404;2023-02-27T09:09:49;0.40;99.90
41882;DHT22;27562;47.524;12.404;2023-02-27T09:12:14;0.50;99.90
41882;DHT22;27562;47.524;12.404;2023-02-27T09:14:40;0.50;99.90
41882;DHT22;27562;47.524;12.404;2023-02-27T09:17:06;0.50;99.90
41882;DHT22;27562;47.524;12.404;2023-02-27T09:19:32;0.60;99.90
41882;DHT22;27562;47.524;12.404;2023-02-27T09:21:57;0.70;99.90
41882;DHT22;27562;47.524;12.404;2023-02-27T09:24:23;0.80;99.90
41882;DHT22;27562;47.524;12.404;2023-02-27T09:26:49;0.80;99.90
41882;DHT22;27562;47.524;12.404;2023-02-27T09:29:14;0.90;99.90
41882;DHT22;27562;47.524;12.404;2023-02-27T09:31:40;1.10;99.90
41882;DHT22;27562;47.524;12.404;2023-02-27T09:34:06;1.10;99.90
41882;DHT22;27562;47.524;12.404;2023-02-27T09:36:32;1.20;99.90
41882;DHT22;27562;47.524;12.404;2023-02-27T09:38:57;1.30;99.90
41882;DHT22;27562;47.524;12.404;2023-02-27T09:41:41;1.40;99.90
41882;DHT22;27562;47.524;12.404;2023-02-27T09:47:05;1.80;99.90
41882;DHT22;27562;47.524;12.404;2023-02-27T09:49:39;1.90;99.90
41882;DHT22;27562;47.524;12.404;2023-02-27T09:52:08;2.10;99.90
41882;DHT22;27562;47.524;12.404;2023-02-27T09:54:37;2.20;99.90
41882;DHT22;27562;47.524;12.404;2023-02-27T09:57:03;2.20;99.90
41882;DHT22;27562;47.524;12.404;2023-02-27T10:02:21;2.20;99.90
41882;DHT22;27562;47.524;12.404;2023-02-27T10:15:09;1.80;99.90
41882;DHT22;27562;47.524;12.404;2023-02-27T10:17:38;1.80;99.90
41882;DHT22;27562;47.524;12.404;2023-02-27T10:20:07;1.90;99.90
41882;DHT22;27562;47.524;12.404;2023-02-27T10:22:35;1.90;99.90
41882;DHT22;27562;47.524;12.404;2023-02-27T10:25:05;1.90;99.90
41882;DHT22;27562;47.524;12.404;2023-02-27T10:27:31;1.90;99.90
41882;DHT22;27562;47.524;12.404;2023-02-27T10:30:00;1.90;99.90
41882;DHT22;27562;47.524;12.404;2023-02-27T10:32:33;1.90;99.90
41882;DHT22;27562;47.524;12.404;2023-02-27T10:37:34;2.00;99.90
41882;DHT22;27562;47.524;12.404;2023-02-27T10:40:01;2.00;99.90
41882;DHT22;27562;47.524;12.404;2023-02-27T10:42:34;1.90;99.90
41882;DHT22;27562;47.524;12.404;2023-02-27T10:45:01;2.00;99.90
41882;DHT22;27562;47.524;12.404;2023-02-27T10:47:27;1.90;99.90
41882;DHT22;27562;47.524;12.404;2023-02-27T10:49:54;2.00;99.90
41882;DHT22;27562;47.524;12.404;2023-02-27T10:52:20;2.00;99.90
41882;DHT22;27562;47.524;12.404;2023-02-27T10:54:45;2.10;99.90
41882;DHT22;27562;47.524;12.404;2023-02-27T10:59:59;2.00;99.90
41882;DHT22;27562;47.524;12.404;2023-02-27T11:02:30;2.00;99.90
41882;DHT22;27562;47.524;12.404;2023-02-27T11:04:58;2.00;99.90
41882;DHT22;27562;47.524;12.404;2023-02-27T11:07:26;2.00;99.90
41882;DHT22;27562;47.524;12.404;2023-02-27T11:10:26;2.00;99.90
41882;DHT22;27562;47.524;12.404;2023-02-27T11:13:09;1.80;99.90
41882;DHT22;27562;47.524;12.404;2023-02-27T11:15:31;1.70;99.90
41882;DHT22;27562;47.524;12.404;2023-02-27T11:20:41;1.70;99.90
41882;DHT22;27562;47.524;12.404;2023-02-27T11:25:36;1.70;99.90
41882;DHT22;27562;47.524;12.404;2023-02-27T11:28:19;1.70;99.90
41882;DHT22;27562;47.524;12.404;2023-02-27T11:30:53;1.70;99.90
41882;DHT22;27562;47.524;12.404;2023-02-27T11:33:19;1.80;99.90
41882;DHT22;27562;47.524;12.404;2023-02-27T11:35:51;1.50;99.90
41882;DHT22;27562;47.524;12.404;2023-02-27T11:38:21;1.50;99.90
41882;DHT22;27562;47.524;12.404;2023-02-27T11:40:52;1.50;99.90
41882;DHT22;27562;47.524;12.404;2023-02-27T11:43:22;1.60;99.90
41882;DHT22;27562;47.524;12.404;2023-02-27T11:45:59;1.60;99.90
41882;DHT22;27562;47.524;12.404;2023-02-27T11:48:27;1.60;99.90
41882;DHT22;27562;47.524;12.404;2023-02-27T11:50:57;1.60;99.90
41882;DHT22;27562;47.524;12.404;2023-02-27T11:55:53;1.60;99.90
41882;DHT22;27562;47.524;12.404;2023-02-27T11:58:21;1.60;99.90
41882;DHT22;27562;47.524;12.404;2023-02-27T12:00:49;1.50;99.90
41882;DHT22;27562;47.524;12.404;2023-02-27T12:05:57;1.40;99.90
41882;DHT22;27562;47.524;12.404;2023-02-27T12:08:29;1.30;99.90
41882;DHT22;27562;47.524;12.404;2023-02-27T12:13:22;1.20;99.90
41882;DHT22;27562;47.524;12.404;2023-02-27T12:18:29;1.20;99.90
41882;DHT22;27562;47.524;12.404;2023-02-27T12:23:31;1.00;99.90
41882;DHT22;27562;47.524;12.404;2023-02-27T12:26:17;0.90;99.90
41882;DHT22;27562;47.524;12.404;2023-02-27T12:36:33;1.10;99.90
41882;DHT22;27562;47.524;12.404;2023-02-27T12:38:59;1.10;99.90
41882;DHT22;27562;47.524;12.404;2023-02-27T12:41:32;1.10;99.90
41882;DHT22;27562;47.524;12.404;2023-02-27T12:51:42;1.00;99.90
41882;DHT22;27562;47.524;12.404;2023-02-27T12:54:16;1.00;99.90
41882;DHT22;27562;47.524;12.404;2023-02-27T13:01:57;0.70;99.90
41882;DHT22;27562;47.524;12.404;2023-02-27T13:04:32;0.70;99.90
41882;DHT22;27562;47.524;12.404;2023-02-27T13:07:12;0.80;99.90
41882;DHT22;27562;47.524;12.404;2023-02-27T13:14:44;0.80;99.90
41882;DHT22;27562;47.524;12.404;2023-02-27T13:17:22;0.70;99.90
41882;DHT22;27562;47.524;12.404;2023-02-27T13:20:01;0.70;99.90
41882;DHT22;27562;47.524;12.404;2023-02-27T13:22:31;0.80;99.90
41882;DHT22;27562;47.524;12.404;2023-02-27T13:24:58;0.80;99.90
41882;DHT22;27562;47.524;12.404;2023-02-27T13:27:35;0.80;99.90
41882;DHT22;27562;47.524;12.404;2023-02-27T13:32:51;0.80;99.90
41882;DHT22;27562;47.524;12.404;2023-02-27T13:35:22;0.80;99.90
41882;DHT22;27562;47.524;12.404;2023-02-27T13:37:55;0.60;99.90
41882;DHT22;27562;47.524;12.404;2023-02-27T13:40:32;0.50;99.90
41882;DHT22;27562;47.524;12.404;2023-02-27T13:42:59;0.40;99.90
41882;DHT22;27562;47.524;12.404;2023-02-27T13:45:46;0.50;99.90
41882;DHT22;27562;47.524;12.404;2023-02-27T13:50:57;0.40;99.90
41882;DHT22;27562;47.524;12.404;2023-02-27T13:53:22;0.40;99.90
41882;DHT22;27562;47.524;12.404;2023-02-27T13:55:50;0.40;99.90
41882;DHT22;27562;47.524;12.404;2023-02-27T13:58:16;0.40;99.90
41882;DHT22;27562;47.524;12.404;2023-02-27T14:00:44;0.40;99.90
41882;DHT22;27562;47.524;12.404;2023-02-27T14:03:18;0.30;99.90
41882;DHT22;27562;47.524;12.404;2023-02-27T14:05:45;0.20;99.90
41882;DHT22;27562;47.524;12.404;2023-02-27T14:08:15;0.20;99.90
41882;DHT22;27562;47.524;12.404;2023-02-27T14:10:52;0.20;99.90
41882;DHT22;27562;47.524;12.404;2023-02-27T14:16:02;0.00;99.90
41882;DHT22;27562;47.524;12.404;2023-02-27T14:18:45;-0.10;99.90
41882;DHT22;27562;47.524;12.404;2023-02-27T14:21:29;0.00;99.90
41882;DHT22;27562;47.524;12.404;2023-02-27T14:23:58;0.00;99.90
41882;DHT22;27562;47.524;12.404;2023-02-27T14:26:24;0.10;99.90
41882;DHT22;27562;47.524;12.404;2023-02-27T14:28:52;0.10;99.90
41882;DHT22;27562;47.524;12.404;2023-02-27T14:31:35;0.10;99.90
41882;DHT22;27562;47.524;12.404;2023-02-27T14:34:03;0.10;99.90
41882;DHT22;27562;47.524;12.404;2023-02-27T14:36:34;0.10;99.90
41882;DHT22;27562;47.524;12.404;2023-02-27T14:39:02;0.10;99.90
41882;DHT22;27562;47.524;12.404;2023-02-27T14:44:19;0.10;99.90
41882;DHT22;27562;47.524;12.404;2023-02-27T14:46:45;0.10;99.90
41882;DHT22;27562;47.524;12.404;2023-02-27T14:51:55;0.10;99.90
41882;DHT22;27562;47.524;12.404;2023-02-27T14:54:22;0.10;99.90
41882;DHT22;27562;47.524;12.404;2023-02-27T14:56:55;0.10;99.90
41882;DHT22;27562;47.524;12.404;2023-02-27T14:59:25;0.00;99.90
41882;DHT22;27562;47.524;12.404;2023-02-27T15:01:52;0.00;99.90
41882;DHT22;27562;47.524;12.404;2023-02-27T15:04:19;0.00;99.90
41882;DHT22;27562;47.524;12.404;2023-02-27T15:06:47;-0.10;99.90
41882;DHT22;27562;47.524;12.404;2023-02-27T15:09:56;-0.10;99.90
41882;DHT22;27562;47.524;12.404;2023-02-27T15:12:02;-0.10;99.90
41882;DHT22;27562;47.524;12.404;2023-02-27T15:14:33;-0.10;99.90
41882;DHT22;27562;47.524;12.404;2023-02-27T15:17:00;-0.10;99.90
41882;DHT22;27562;47.524;12.404;2023-02-27T15:19:27;-0.10;99.90
41882;DHT22;27562;47.524;12.404;2023-02-27T15:21:59;-0.20;99.90
41882;DHT22;27562;47.524;12.404;2023-02-27T15:24:29;-0.20;99.90
41882;DHT22;27562;47.524;12.404;2023-02-27T15:26:57;-0.20;99.90
41882;DHT22;27562;47.524;12.404;2023-02-27T15:29:25;-0.30;99.90
41882;DHT22;27562;47.524;12.404;2023-02-27T15:31:53;-0.30;99.90
41882;DHT22;27562;47.524;12.404;2023-02-27T15:34:19;-0.30;99.90
41882;DHT22;27562;47.524;12.404;2023-02-27T15:36:46;-0.40;99.90
41882;DHT22;27562;47.524;12.404;2023-02-27T15:39:17;-0.50;99.90
41882;DHT22;27562;47.524;12.404;2023-02-27T15:41:51;-0.50;99.90
41882;DHT22;27562;47.524;12.404;2023-02-27T15:44:19;-0.60;99.90
41882;DHT22;27562;47.524;12.404;2023-02-27T15:46:48;-0.60;99.90
41882;DHT22;27562;47.524;12.404;2023-02-27T15:49:14;-0.70;99.90
41882;DHT22;27562;47.524;12.404;2023-02-27T15:51:40;-0.70;99.90
41882;DHT22;27562;47.524;12.404;2023-02-27T15:54:06;-0.70;99.90
41882;DHT22;27562;47.524;12.404;2023-02-27T15:56:33;-0.80;99.90
41882;DHT22;27562;47.524;12.404;2023-02-27T15:58:59;-0.80;99.90
41882;DHT22;27562;47.524;12.404;2023-02-27T16:01:26;-0.90;99.90
41882;DHT22;27562;47.524;12.404;2023-02-27T16:03:54;-0.90;99.90
41882;DHT22;27562;47.524;12.404;2023-02-27T16:06:22;-0.80;99.90
41882;DHT22;27562;47.524;12.404;2023-02-27T16:08:55;-0.90;99.90
41882;DHT22;27562;47.524;12.404;2023-02-27T16:11:23;-0.90;99.90
41882;DHT22;27562;47.524;12.404;2023-02-27T16:13:49;-0.90;99.90
41882;DHT22;27562;47.524;12.404;2023-02-27T16:16:34;-1.00;99.90
41882;DHT22;27562;47.524;12.404;2023-02-27T16:19:02;-1.00;99.90
41882;DHT22;27562;47.524;12.404;2023-02-27T16:21:38;-1.00;99.90
41882;DHT22;27562;47.524;12.404;2023-02-27T16:24:16;-1.00;99.90
41882;DHT22;27562;47.524;12.404;2023-02-27T16:26:46;-1.00;99.90
41882;DHT22;27562;47.524;12.404;2023-02-27T16:29:15;-0.90;99.90
41882;DHT22;27562;47.524;12.404;2023-02-27T16:31:46;-1.00;99.90
41882;DHT22;27562;47.524;12.404;2023-02-27T16:34:23;-1.00;99.90
41882;DHT22;27562;47.524;12.404;2023-02-27T16:36:53;-1.00;99.90
41882;DHT22;27562;47.524;12.404;2023-02-27T16:39:28;-1.00;99.90
41882;DHT22;27562;47.524;12.404;2023-02-27T16:41:54;-1.00;99.90
41882;DHT22;27562;47.524;12.404;2023-02-27T16:44:20;-1.00;99.90
41882;DHT22;27562;47.524;12.404;2023-02-27T16:46:54;-1.00;99.90
41882;DHT22;27562;47.524;12.404;2023-02-27T16:49:27;-1.10;99.90
41882;DHT22;27562;47.524;12.404;2023-02-27T16:52:02;-1.10;99.90
41882;DHT22;27562;47.524;12.404;2023-02-27T16:54:30;-1.10;99.90
41882;DHT22;27562;47.524;12.404;2023-02-27T16:56:59;-1.10;99.90
41882;DHT22;27562;47.524;12.404;2023-02-27T17:02:03;-1.10;99.90
41882;DHT22;27562;47.524;12.404;2023-02-27T17:04:29;-1.10;99.90
41882;DHT22;27562;47.524;12.404;2023-02-27T17:06:56;-1.10;99.90
41882;DHT22;27562;47.524;12.404;2023-02-27T17:09:22;-1.10;99.90
41882;DHT22;27562;47.524;12.404;2023-02-27T17:11:50;-1.10;99.90
41882;DHT22;27562;47.524;12.404;2023-02-27T17:14:16;-1.00;99.90
41882;DHT22;27562;47.524;12.404;2023-02-27T17:16:42;-1.10;99.90
41882;DHT22;27562;47.524;12.404;2023-02-27T17:19:08;-1.10;99.90
41882;DHT22;27562;47.524;12.404;2023-02-27T17:21:34;-1.10;99.90
41882;DHT22;27562;47.524;12.404;2023-02-27T17:24:00;-1.00;99.90
41882;DHT22;27562;47.524;12.404;2023-02-27T17:26:26;-1.00;99.90
41882;DHT22;27562;47.524;12.404;2023-02-27T17:28:52;-1.00;99.90
41882;DHT22;27562;47.524;12.404;2023-02-27T17:31:21;-1.10;99.90
41882;DHT22;27562;47.524;12.404;2023-02-27T17:33:48;-1.00;99.90
41882;DHT22;27562;47.524;12.404;2023-02-27T17:36:14;-1.00;99.90
41882;DHT22;27562;47.524;12.404;2023-02-27T17:38:41;-1.10;99.90
41882;DHT22;27562;47.524;12.404;2023-02-27T17:41:07;-1.10;99.90
41882;DHT22;27562;47.524;12.404;2023-02-27T17:43:33;-1.10;99.90
41882;DHT22;27562;47.524;12.404;2023-02-27T17:45:59;-1.10;99.90